Time;durP1;ratioP1;P1;durP2;ratioP2;P2;SDS_P1;SDS_P2;PMS_P1;PMS_P2;Temp;Humidity;BMP_temperature;BMP_pressure;BME280_temperature;BME280_humidity;BME280_pressure;Samples;Min_cycle;Max_cycle;Signal;HPM_P1;HPM_P2
2022/03/26 00:01:05;;;;;;;108.00;59.03;;;6.40;91.80;;;;;;5051108;28;20226;-82
2022/03/26 00:03:32;;;;;;;104.70;57.83;;;6.30;91.60;;;;;;5052419;28;20311;-82
2022/03/26 00:05:59;;;;;;;107.40;59.53;;;6.30;91.60;;;;;;5047713;28;20709;-82
2022/03/26 00:08:26;;;;;;;110.37;61.10;;;6.30;91.80;;;;;;5054501;28;20232;-82
2022/03/26 00:10:53;;;;;;;106.23;59.03;;;6.30;91.90;;;;;;5054861;28;20232;-82
2022/03/26 00:13:21;;;;;;;104.10;58.33;;;6.20;92.10;;;;;;5050525;28;20236;-82
2022/03/26 00:15:47;;;;;;;111.33;57.83;;;6.20;92.20;;;;;;5050688;28;20232;-82
2022/03/26 00:18:17;;;;;;;109.83;59.43;;;6.20;92.30;;;;;;5047543;28;20228;-81
2022/03/26 00:20:44;;;;;;;110.57;61.57;;;6.20;92.50;;;;;;5051148;28;20692;-82
2022/03/26 00:23:11;;;;;;;105.77;58.53;;;6.10;92.30;;;;;;5051023;28;20836;-82
2022/03/26 00:25:38;;;;;;;112.23;59.07;;;6.10;92.40;;;;;;5049580;28;20228;-81
2022/03/26 00:28:05;;;;;;;106.50;59.10;;;6.00;92.40;;;;;;5051485;28;20220;-82
2022/03/26 00:30:35;;;;;;;107.50;57.53;;;6.00;92.50;;;;;;5051534;28;20216;-81
2022/03/26 00:33:01;;;;;;;103.27;58.00;;;6.00;92.50;;;;;;5052570;28;20661;-81
2022/03/26 00:35:31;;;;;;;104.33;57.97;;;6.00;92.50;;;;;;5050674;28;20224;-82
2022/03/26 00:37:57;;;;;;;105.17;58.33;;;6.00;92.70;;;;;;5046593;28;20223;-82
2022/03/26 00:40:24;;;;;;;106.60;58.20;;;6.00;92.60;;;;;;5052010;28;20236;-82
2022/03/26 00:42:51;;;;;;;105.77;57.67;;;5.90;92.70;;;;;;5055140;28;20234;-82
2022/03/26 00:45:17;;;;;;;113.40;59.57;;;5.90;92.90;;;;;;5049702;28;20222;-80
2022/03/26 00:47:44;;;;;;;105.43;57.33;;;5.90;92.90;;;;;;5052890;28;20723;-80
2022/03/26 00:50:11;;;;;;;104.07;58.60;;;5.90;93.00;;;;;;5047761;28;20216;-80
2022/03/26 00:52:39;;;;;;;108.60;59.67;;;5.80;93.00;;;;;;5048586;28;20228;-80
2022/03/26 00:55:08;;;;;;;111.83;59.73;;;5.80;93.10;;;;;;5049562;28;20232;-80
2022/03/26 00:57:35;;;;;;;107.83;58.93;;;5.80;93.30;;;;;;5049217;28;20250;-80
2022/03/26 01:00:01;;;;;;;116.67;61.30;;;5.80;93.10;;;;;;5051612;28;20232;-80
2022/03/26 01:02:28;;;;;;;108.67;58.30;;;5.70;93.20;;;;;;5049167;28;20234;-80
2022/03/26 01:04:55;;;;;;;107.30;59.13;;;5.70;93.30;;;;;;5051148;28;20238;-81
2022/03/26 01:07:21;;;;;;;115.03;62.10;;;5.70;93.40;;;;;;5050191;28;20230;-81
2022/03/26 01:09:49;;;;;;;106.40;57.60;;;5.70;93.50;;;;;;5050541;28;20228;-81
2022/03/26 01:12:17;;;;;;;111.23;61.00;;;5.70;93.60;;;;;;5066549;28;20607;-80
2022/03/26 01:14:44;;;;;;;119.87;60.10;;;5.60;93.50;;;;;;5048170;28;20277;-80
2022/03/26 01:17:11;;;;;;;107.60;58.37;;;5.60;93.60;;;;;;5047855;28;20596;-80
2022/03/26 01:19:37;;;;;;;108.70;57.57;;;5.60;93.60;;;;;;5050876;28;20230;-80
2022/03/26 01:22:05;;;;;;;103.10;58.37;;;5.50;93.50;;;;;;5051883;28;20302;-81
2022/03/26 01:24:31;;;;;;;115.07;60.53;;;5.50;93.70;;;;;;5050173;28;20224;-80
2022/03/26 01:26:59;;;;;;;108.70;59.17;;;5.50;93.80;;;;;;5046929;28;20581;-80
2022/03/26 01:29:26;;;;;;;104.83;58.33;;;5.40;94.00;;;;;;5049881;28;20253;-80
2022/03/26 01:31:53;;;;;;;106.77;57.10;;;5.40;94.00;;;;;;5049638;28;20227;-80
2022/03/26 01:34:22;;;;;;;109.87;59.97;;;5.40;94.20;;;;;;5046343;28;20236;-80
2022/03/26 01:36:49;;;;;;;104.37;58.97;;;5.40;94.30;;;;;;5054356;28;20246;-80
2022/03/26 01:39:17;;;;;;;104.40;57.90;;;5.40;94.40;;;;;;5054079;28;20683;-80
2022/03/26 01:41:44;;;;;;;100.80;55.97;;;5.40;94.50;;;;;;5043384;28;20224;-81
2022/03/26 01:44:14;;;;;;;105.83;58.33;;;5.40;94.50;;;;;;5047717;28;20236;-81
2022/03/26 01:46:51;;;;;;;112.57;58.30;;;5.40;94.70;;;;;;5052708;28;20720;-81
2022/03/26 01:49:18;;;;;;;102.30;56.30;;;5.40;94.90;;;;;;5051684;28;20256;-80
2022/03/26 01:51:45;;;;;;;103.33;56.67;;;5.40;94.70;;;;;;5048986;28;20223;-81
2022/03/26 01:54:13;;;;;;;102.40;56.50;;;5.40;94.60;;;;;;5048789;28;20724;-81
2022/03/26 01:56:40;;;;;;;97.73;55.47;;;5.40;94.70;;;;;;5051397;28;20314;-81
2022/03/26 01:59:08;;;;;;;104.93;56.03;;;5.40;94.40;;;;;;5047819;28;20224;-82
2022/03/26 02:01:38;;;;;;;104.67;55.20;;;5.30;94.70;;;;;;5048193;28;20228;-82
2022/03/26 02:04:06;;;;;;;102.13;55.40;;;5.30;94.80;;;;;;5048143;28;20236;-80
2022/03/26 02:06:34;;;;;;;105.97;57.23;;;5.30;94.80;;;;;;5048932;28;20231;-82
2022/03/26 02:09:03;;;;;;;107.67;58.10;;;5.30;94.90;;;;;;5052722;28;20227;-83
2022/03/26 02:11:33;;;;;;;101.07;55.77;;;5.30;95.00;;;;;;5048170;28;20255;-82
2022/03/26 02:14:01;;;;;;;101.63;54.47;;;5.30;95.10;;;;;;5045162;28;20728;-82
2022/03/26 02:16:27;;;;;;;105.17;55.60;;;5.20;94.90;;;;;;5043985;28;20232;-82
2022/03/26 02:18:56;;;;;;;98.57;55.00;;;5.20;94.80;;;;;;5050728;28;20235;-82
2022/03/26 02:21:24;;;;;;;105.77;57.03;;;5.20;95.00;;;;;;5053522;28;20569;-82
2022/03/26 02:23:52;;;;;;;107.77;57.00;;;5.20;95.10;;;;;;5048821;28;20600;-82
2022/03/26 02:26:21;;;;;;;101.77;54.60;;;5.20;95.20;;;;;;5051557;28;20257;-83
2022/03/26 02:28:49;;;;;;;96.03;54.43;;;5.20;95.20;;;;;;5050945;28;20259;-83
2022/03/26 02:31:17;;;;;;;97.27;54.73;;;5.20;95.00;;;;;;5050799;28;20220;-83
2022/03/26 02:33:44;;;;;;;101.60;56.13;;;5.20;95.20;;;;;;5056896;28;20331;-84
2022/03/26 02:36:11;;;;;;;103.03;57.43;;;5.10;95.50;;;;;;5048381;28;20830;-83
2022/03/26 02:38:39;;;;;;;112.10;59.53;;;5.10;95.20;;;;;;5051156;28;20230;-83
2022/03/26 02:41:07;;;;;;;105.03;58.57;;;5.10;95.40;;;;;;5051236;28;20277;-83
2022/03/26 02:43:34;;;;;;;103.60;56.93;;;5.10;95.40;;;;;;5050246;28;20235;-83
2022/03/26 02:46:01;;;;;;;97.73;51.80;;;5.10;95.60;;;;;;5050744;28;20235;-83
2022/03/26 02:48:28;;;;;;;100.53;55.30;;;5.10;95.50;;;;;;5051005;28;20231;-82
2022/03/26 02:50:55;;;;;;;100.83;55.27;;;5.10;95.40;;;;;;5053612;28;20227;-82
2022/03/26 02:53:21;;;;;;;100.73;55.17;;;5.10;95.50;;;;;;5049850;28;20236;-82
2022/03/26 02:55:50;;;;;;;104.27;56.23;;;5.00;95.60;;;;;;5051571;28;20422;-81
2022/03/26 02:58:17;;;;;;;101.03;55.50;;;5.00;95.70;;;;;;5049102;28;20331;-81
2022/03/26 03:00:43;;;;;;;104.50;57.70;;;5.00;95.60;;;;;;5056804;28;20776;-82
2022/03/26 03:03:10;;;;;;;99.73;53.27;;;5.00;95.70;;;;;;5053034;28;20257;-80
2022/03/26 03:05:37;;;;;;;105.47;57.53;;;5.00;95.70;;;;;;5050027;28;20393;-80
2022/03/26 03:08:04;;;;;;;109.43;59.93;;;5.00;95.90;;;;;;5052346;28;20764;-81
2022/03/26 03:10:31;;;;;;;103.67;55.77;;;5.00;96.00;;;;;;5052523;28;21159;-81
2022/03/26 03:12:59;;;;;;;100.20;53.17;;;5.00;96.00;;;;;;5051333;28;20223;-82
2022/03/26 03:15:26;;;;;;;97.97;55.27;;;5.00;96.00;;;;;;5049842;28;20250;-82
2022/03/26 03:17:53;;;;;;;100.77;54.60;;;5.00;95.90;;;;;;5052219;28;20723;-82
2022/03/26 03:20:20;;;;;;;103.60;57.07;;;5.00;95.80;;;;;;5051355;28;20311;-82
2022/03/26 03:22:46;;;;;;;99.67;55.77;;;5.00;95.70;;;;;;5050297;28;20235;-82
2022/03/26 03:25:13;;;;;;;95.37;53.90;;;5.00;95.80;;;;;;5052349;28;20232;-82
2022/03/26 03:27:40;;;;;;;95.87;53.43;;;5.00;95.70;;;;;;5050002;28;20600;-82
2022/03/26 03:30:11;;;;;;;101.30;55.00;;;5.00;95.70;;;;;;5044623;28;20358;-82
2022/03/26 03:32:37;;;;;;;100.90;53.33;;;5.00;95.80;;;;;;5047341;28;20220;-82
2022/03/26 03:35:05;;;;;;;93.27;50.27;;;5.00;95.70;;;;;;5052195;28;20551;-84
2022/03/26 03:37:35;;;;;;;103.47;52.93;;;5.00;95.70;;;;;;5049570;28;20234;-83
2022/03/26 03:40:03;;;;;;;95.57;50.90;;;5.00;95.80;;;;;;5045860;28;20231;-83
2022/03/26 03:42:30;;;;;;;87.27;49.40;;;5.00;95.70;;;;;;5053786;28;20242;-82
2022/03/26 03:44:56;;;;;;;96.57;52.70;;;5.00;95.60;;;;;;5049152;28;20223;-82
2022/03/26 03:47:25;;;;;;;93.83;52.23;;;5.00;95.70;;;;;;5051173;28;20236;-82
2022/03/26 03:49:52;;;;;;;94.20;50.27;;;5.00;95.80;;;;;;5051491;28;20219;-83
2022/03/26 03:52:19;;;;;;;94.33;51.60;;;4.90;95.80;;;;;;5049354;28;20314;-81
2022/03/26 03:54:45;;;;;;;95.93;50.83;;;4.90;95.90;;;;;;5049145;28;20230;-81
2022/03/26 03:57:12;;;;;;;94.53;51.43;;;4.90;95.90;;;;;;5049914;28;20235;-83
2022/03/26 03:59:41;;;;;;;91.80;50.13;;;4.90;96.00;;;;;;5048817;28;20238;-82
2022/03/26 04:02:09;;;;;;;91.97;50.60;;;4.90;96.10;;;;;;5050219;28;20226;-82
2022/03/26 04:04:38;;;;;;;95.40;51.60;;;4.90;96.20;;;;;;5047267;28;20635;-81
2022/03/26 04:07:05;;;;;;;88.73;49.27;;;4.90;96.30;;;;;;5051961;28;20227;-81
2022/03/26 04:09:31;;;;;;;89.10;49.93;;;4.90;96.10;;;;;;5050793;28;20231;-82
2022/03/26 04:11:58;;;;;;;92.50;49.40;;;4.90;96.20;;;;;;5051609;28;20814;-82
2022/03/26 04:14:25;;;;;;;96.37;51.90;;;4.90;96.40;;;;;;5050743;28;20239;-82
2022/03/26 04:16:51;;;;;;;96.23;52.40;;;4.90;96.40;;;;;;5046834;28;20235;-83
2022/03/26 04:19:18;;;;;;;97.70;53.57;;;4.90;96.50;;;;;;5048336;28;20227;-84
2022/03/26 04:21:46;;;;;;;93.57;51.87;;;4.90;96.60;;;;;;5047454;28;20231;-82
2022/03/26 04:24:13;;;;;;;95.40;51.70;;;4.90;96.60;;;;;;5047948;28;20227;-82
2022/03/26 04:26:40;;;;;;;90.40;50.50;;;4.90;96.60;;;;;;5048829;28;20245;-81
2022/03/26 04:29:07;;;;;;;95.50;53.27;;;4.90;96.60;;;;;;5042814;28;20262;-82
2022/03/26 04:31:34;;;;;;;93.60;52.03;;;4.90;96.60;;;;;;5050522;28;20251;-82
2022/03/26 04:34:01;;;;;;;98.33;52.67;;;4.90;96.60;;;;;;5050026;28;20235;-82
2022/03/26 04:36:29;;;;;;;99.93;53.20;;;4.90;96.70;;;;;;5049168;28;20387;-82
2022/03/26 04:38:57;;;;;;;96.00;54.90;;;4.90;96.70;;;;;;5049355;28;20246;-83
2022/03/26 04:41:24;;;;;;;97.10;54.23;;;4.90;96.90;;;;;;5044660;28;20233;-82
2022/03/26 04:43:51;;;;;;;99.23;53.93;;;4.90;96.80;;;;;;5049395;28;20231;-83
2022/03/26 04:46:18;;;;;;;95.57;50.30;;;4.80;96.90;;;;;;5047979;28;20227;-82
2022/03/26 04:48:45;;;;;;;97.87;53.13;;;4.80;96.80;;;;;;5049043;28;20231;-82
2022/03/26 04:51:12;;;;;;;100.23;51.40;;;4.80;96.80;;;;;;5050653;28;20239;-82
2022/03/26 04:53:39;;;;;;;107.17;54.77;;;4.80;96.80;;;;;;5050134;28;20232;-82
2022/03/26 04:56:08;;;;;;;106.50;53.50;;;4.80;97.00;;;;;;5048207;28;20282;-82
2022/03/26 04:58:34;;;;;;;95.50;52.80;;;4.80;97.00;;;;;;5049529;28;20242;-82
2022/03/26 05:01:01;;;;;;;101.47;54.73;;;4.80;96.90;;;;;;5045909;28;20220;-82
2022/03/26 05:03:28;;;;;;;104.03;54.70;;;4.80;96.90;;;;;;5047774;28;20239;-82
2022/03/26 05:05:55;;;;;;;106.20;56.43;;;4.80;97.00;;;;;;5050652;28;20323;-82
2022/03/26 05:08:21;;;;;;;108.90;57.73;;;4.80;97.10;;;;;;5049609;28;20228;-82
2022/03/26 05:10:48;;;;;;;103.43;56.57;;;4.80;97.10;;;;;;5050185;28;20287;-82
2022/03/26 05:13:16;;;;;;;117.73;59.57;;;4.80;97.10;;;;;;5048953;28;20223;-81
2022/03/26 05:15:43;;;;;;;112.90;59.70;;;4.80;97.30;;;;;;5050326;28;20231;-81
2022/03/26 05:18:09;;;;;;;106.13;56.83;;;4.80;97.40;;;;;;5050275;28;20858;-81
2022/03/26 05:20:36;;;;;;;105.97;58.83;;;4.80;97.40;;;;;;5051667;28;20238;-81
2022/03/26 05:23:05;;;;;;;109.63;58.93;;;4.80;97.50;;;;;;5049446;28;20234;-80
2022/03/26 05:25:32;;;;;;;106.77;56.50;;;4.80;97.60;;;;;;5051267;28;20262;-81
2022/03/26 05:27:59;;;;;;;109.10;58.83;;;4.80;97.60;;;;;;5048853;28;20290;-82
2022/03/26 05:30:27;;;;;;;110.47;59.10;;;4.80;97.60;;;;;;5046453;28;20228;-81
2022/03/26 05:32:54;;;;;;;108.53;57.97;;;4.80;97.70;;;;;;5050890;28;20871;-82
2022/03/26 05:35:21;;;;;;;114.93;58.63;;;4.80;97.70;;;;;;5046090;28;20762;-80
2022/03/26 05:37:49;;;;;;;113.60;59.53;;;4.80;97.90;;;;;;5047453;28;20311;-79
2022/03/26 05:40:19;;;;;;;108.70;58.83;;;4.80;98.00;;;;;;5049035;28;20230;-79
2022/03/26 05:42:47;;;;;;;110.43;55.87;;;4.80;98.10;;;;;;5050376;28;20256;-79
2022/03/26 05:45:15;;;;;;;114.40;58.17;;;4.90;98.10;;;;;;5049868;28;20307;-79
2022/03/26 05:47:43;;;;;;;112.93;58.07;;;4.90;98.20;;;;;;5048828;28;20227;-79
2022/03/26 05:50:11;;;;;;;115.43;60.77;;;4.90;98.50;;;;;;5046565;28;20227;-78
2022/03/26 05:52:38;;;;;;;103.03;57.17;;;5.00;98.40;;;;;;5045574;28;20232;-78
2022/03/26 05:55:06;;;;;;;116.93;59.53;;;5.10;98.60;;;;;;5047515;28;20232;-78
2022/03/26 05:57:33;;;;;;;109.63;59.77;;;5.20;98.70;;;;;;5059004;28;20228;-79
2022/03/26 06:00:00;;;;;;;106.77;57.93;;;5.30;98.60;;;;;;5050744;28;20224;-79
2022/03/26 06:02:27;;;;;;;111.23;57.43;;;5.40;98.70;;;;;;5053065;28;20266;-78
2022/03/26 06:04:55;;;;;;;101.67;57.53;;;5.60;98.70;;;;;;5050361;28;20232;-79
2022/03/26 06:07:21;;;;;;;111.47;59.00;;;5.70;98.60;;;;;;5051510;28;20228;-79
2022/03/26 06:09:48;;;;;;;108.87;59.50;;;5.90;98.60;;;;;;5051181;28;20232;-78
2022/03/26 06:12:15;;;;;;;97.70;56.47;;;6.00;98.40;;;;;;5052742;28;20234;-78
2022/03/26 06:14:42;;;;;;;96.03;54.97;;;6.20;98.20;;;;;;5049195;28;20227;-78
2022/03/26 06:17:08;;;;;;;105.47;57.60;;;6.40;98.00;;;;;;5051597;28;20285;-78
2022/03/26 06:19:36;;;;;;;102.20;58.43;;;6.50;97.90;;;;;;5049424;28;20223;-78
2022/03/26 06:22:04;;;;;;;101.57;56.83;;;6.60;97.80;;;;;;5049616;28;20235;-78
2022/03/26 06:24:31;;;;;;;100.07;55.40;;;6.70;97.80;;;;;;5049977;28;20219;-77
2022/03/26 06:26:58;;;;;;;105.27;58.80;;;6.80;97.70;;;;;;5049044;28;20220;-78
2022/03/26 06:29:24;;;;;;;100.23;56.93;;;6.90;97.50;;;;;;5049335;28;20243;-78
2022/03/26 06:31:51;;;;;;;96.33;54.57;;;7.00;97.40;;;;;;5049655;28;20224;-77
2022/03/26 06:34:18;;;;;;;96.03;54.93;;;7.10;97.50;;;;;;5049117;28;20719;-78
2022/03/26 06:36:44;;;;;;;92.93;55.53;;;7.20;97.40;;;;;;5053326;28;20223;-78
2022/03/26 06:39:12;;;;;;;94.37;56.00;;;7.30;97.40;;;;;;5050260;28;20224;-78
2022/03/26 06:41:39;;;;;;;99.60;56.00;;;7.40;97.40;;;;;;5050743;28;20228;-78
2022/03/26 06:44:08;;;;;;;95.43;55.60;;;7.50;97.40;;;;;;5049152;28;20228;-78
2022/03/26 06:46:35;;;;;;;95.47;55.13;;;7.60;97.30;;;;;;5050091;28;20720;-78
2022/03/26 06:49:02;;;;;;;89.87;52.37;;;7.70;97.20;;;;;;5055668;28;20215;-78
2022/03/26 06:51:28;;;;;;;85.03;49.00;;;7.80;97.00;;;;;;5049233;28;20816;-78
2022/03/26 06:53:55;;;;;;;83.47;50.97;;;7.90;96.90;;;;;;5044784;28;20250;-77
2022/03/26 06:56:23;;;;;;;84.37;50.63;;;8.00;96.70;;;;;;5049724;28;20232;-77
2022/03/26 06:58:50;;;;;;;84.07;49.00;;;8.10;96.70;;;;;;5048210;28;20599;-78
2022/03/26 07:01:16;;;;;;;84.90;50.20;;;8.10;96.70;;;;;;5048762;28;20220;-78
2022/03/26 07:03:43;;;;;;;80.90;48.83;;;8.20;96.70;;;;;;5049552;28;20594;-78
2022/03/26 07:06:12;;;;;;;81.10;48.13;;;8.20;96.70;;;;;;5048604;28;20231;-77
2022/03/26 07:08:39;;;;;;;80.37;49.43;;;8.30;96.60;;;;;;5049872;28;20228;-77
2022/03/26 07:11:05;;;;;;;83.17;47.97;;;8.40;96.60;;;;;;5048541;28;20216;-78
2022/03/26 07:13:33;;;;;;;76.43;45.93;;;8.40;96.50;;;;;;5049321;28;20724;-78
2022/03/26 07:16:00;;;;;;;76.00;45.93;;;8.50;96.40;;;;;;5058953;28;20231;-77
2022/03/26 07:18:26;;;;;;;83.63;46.37;;;8.60;96.30;;;;;;5050419;28;20235;-78
2022/03/26 07:20:57;;;;;;;74.47;43.13;;;8.70;96.40;;;;;;5051089;28;20825;-78
2022/03/26 07:23:23;;;;;;;79.30;45.80;;;8.80;96.40;;;;;;5048393;28;20228;-78
2022/03/26 07:25:50;;;;;;;78.80;45.20;;;8.90;96.20;;;;;;5050485;28;20323;-78
2022/03/26 07:28:17;;;;;;;74.97;45.17;;;9.00;96.10;;;;;;5053330;28;20228;-78
2022/03/26 07:30:45;;;;;;;68.83;41.57;;;9.00;96.10;;;;;;5050277;28;20230;-78
2022/03/26 07:33:11;;;;;;;68.93;41.53;;;9.20;96.20;;;;;;5047385;28;20226;-77
2022/03/26 07:35:38;;;;;;;65.50;40.10;;;9.30;96.00;;;;;;5048379;28;20234;-78
2022/03/26 07:38:05;;;;;;;64.73;38.43;;;9.40;95.90;;;;;;5045132;28;20232;-79
2022/03/26 07:40:32;;;;;;;62.93;38.40;;;9.50;95.80;;;;;;5048365;28;20240;-78
2022/03/26 07:42:58;;;;;;;62.60;39.63;;;9.70;95.80;;;;;;5047537;28;20240;-78
2022/03/26 07:45:26;;;;;;;60.73;37.43;;;9.80;95.80;;;;;;5048336;28;20225;-78
2022/03/26 07:47:54;;;;;;;54.10;34.80;;;10.00;95.80;;;;;;5048994;28;20318;-78
2022/03/26 07:50:20;;;;;;;54.30;33.90;;;10.20;95.60;;;;;;5050263;28;20237;-77
2022/03/26 07:52:47;;;;;;;54.37;34.80;;;10.40;95.60;;;;;;5049805;28;20224;-78
2022/03/26 07:55:14;;;;;;;54.80;33.23;;;10.60;95.30;;;;;;5051844;28;20559;-78
2022/03/26 07:57:40;;;;;;;51.27;31.03;;;10.90;95.20;;;;;;5050809;28;20228;-77
2022/03/26 08:00:09;;;;;;;51.73;31.07;;;11.00;94.70;;;;;;5048987;28;20286;-78
2022/03/26 08:02:41;;;;;;;50.37;31.60;;;11.20;94.50;;;;;;5053857;28;20223;-79
2022/03/26 08:05:10;;;;;;;48.07;30.23;;;11.30;94.20;;;;;;5050757;28;20287;-78
2022/03/26 08:07:36;;;;;;;46.23;29.50;;;11.40;94.00;;;;;;5045494;28;20227;-77
2022/03/26 08:10:03;;;;;;;47.17;29.07;;;11.40;93.90;;;;;;5049388;28;20227;-77
2022/03/26 08:12:30;;;;;;;44.37;26.87;;;11.50;94.00;;;;;;5049036;28;20233;-78
2022/03/26 08:14:57;;;;;;;43.53;26.87;;;11.60;93.90;;;;;;5052457;28;20239;-78
2022/03/26 08:17:25;;;;;;;41.50;26.10;;;11.80;93.50;;;;;;5045989;28;20417;-78
2022/03/26 08:19:52;;;;;;;34.80;23.27;;;11.90;93.20;;;;;;5049629;28;20936;-78
2022/03/26 08:22:20;;;;;;;41.33;24.83;;;12.00;93.20;;;;;;5050851;28;20322;-79
2022/03/26 08:24:47;;;;;;;36.10;23.63;;;12.20;93.00;;;;;;5049932;28;21717;-78
2022/03/26 08:27:13;;;;;;;37.20;23.47;;;12.40;92.80;;;;;;5044354;28;20763;-77
2022/03/26 08:29:40;;;;;;;34.17;23.23;;;12.60;92.50;;;;;;5051768;28;20235;-78
2022/03/26 08:32:07;;;;;;;30.77;21.73;;;12.70;92.20;;;;;;5047184;28;20316;-78
2022/03/26 08:34:34;;;;;;;33.37;23.50;;;12.90;91.90;;;;;;5047497;28;20234;-78
2022/03/26 08:37:01;;;;;;;34.27;21.90;;;13.00;91.70;;;;;;5056962;28;20226;-78
2022/03/26 08:39:29;;;;;;;33.77;22.20;;;13.10;91.80;;;;;;5047225;28;20226;-78
2022/03/26 08:41:55;;;;;;;30.27;20.00;;;13.20;91.50;;;;;;5050988;28;20219;-78
2022/03/26 08:44:22;;;;;;;32.77;20.77;;;13.30;91.40;;;;;;5056463;28;20238;-78
2022/03/26 08:46:49;;;;;;;28.23;19.37;;;13.50;91.00;;;;;;5050411;28;20237;-78
2022/03/26 08:49:15;;;;;;;32.40;20.10;;;13.50;90.90;;;;;;5048060;28;20234;-78
2022/03/26 08:51:42;;;;;;;30.40;19.50;;;13.60;90.80;;;;;;5045771;28;20258;-79
2022/03/26 08:54:09;;;;;;;26.37;19.00;;;13.60;90.60;;;;;;5050373;28;20230;-79
2022/03/26 08:56:36;;;;;;;29.60;18.87;;;13.70;90.60;;;;;;5050235;28;20231;-79
2022/03/26 08:59:03;;;;;;;26.10;17.50;;;13.80;90.80;;;;;;5050033;28;20315;-79
2022/03/26 09:01:30;;;;;;;29.30;18.27;;;14.00;90.70;;;;;;5045930;28;20562;-78
2022/03/26 09:03:57;;;;;;;26.03;17.13;;;14.30;90.40;;;;;;5048086;28;20281;-78
2022/03/26 09:06:23;;;;;;;26.40;17.90;;;14.60;89.80;;;;;;5047685;28;20223;-79
2022/03/26 09:08:51;;;;;;;24.73;17.97;;;14.80;88.70;;;;;;5043907;28;20310;-77
2022/03/26 09:11:17;;;;;;;27.47;18.27;;;15.00;89.10;;;;;;5045624;28;20293;-78
2022/03/26 09:13:46;;;;;;;28.93;18.03;;;15.30;88.60;;;;;;5044015;28;20278;-77
2022/03/26 09:16:13;;;;;;;24.42;17.95;;;15.60;87.80;;;;;;5043075;28;20251;-77
2022/03/26 09:18:40;;;;;;;25.63;18.53;;;15.80;86.40;;;;;;5045419;28;20220;-82
2022/03/26 09:21:07;;;;;;;27.80;18.33;;;15.90;85.90;;;;;;5042819;28;20220;-78
2022/03/26 09:23:34;;;;;;;27.33;18.70;;;16.00;85.40;;;;;;5047760;28;20235;-79
2022/03/26 09:26:04;;;;;;;26.20;18.43;;;16.00;85.00;;;;;;5049203;28;20223;-78
2022/03/26 09:28:31;;;;;;;26.03;18.03;;;15.90;84.30;;;;;;5049951;28;20227;-78
2022/03/26 09:30:59;;;;;;;38.57;24.80;;;15.80;84.00;;;;;;5053857;28;20226;-78
2022/03/26 09:33:25;;;;;;;25.97;17.27;;;15.70;83.70;;;;;;5053493;28;20233;-78
2022/03/26 09:35:52;;;;;;;23.13;16.77;;;15.50;83.90;;;;;;5048633;28;20819;-78
2022/03/26 09:38:19;;;;;;;27.10;16.73;;;15.40;84.10;;;;;;5047448;28;20619;-78
2022/03/26 09:40:45;;;;;;;20.43;14.67;;;15.20;84.60;;;;;;5052035;28;20231;-78
2022/03/26 09:43:14;;;;;;;20.47;15.13;;;15.10;84.90;;;;;;5055279;28;20220;-78
2022/03/26 09:45:41;;;;;;;18.77;13.90;;;15.10;85.20;;;;;;5059207;28;20227;-78
2022/03/26 09:48:09;;;;;;;17.97;12.73;;;15.00;85.20;;;;;;5058751;28;20254;-79
2022/03/26 09:50:41;;;;;;;19.20;12.90;;;14.90;85.30;;;;;;5053494;28;20235;-78
2022/03/26 09:53:10;;;;;;;15.60;11.43;;;14.80;85.50;;;;;;5051131;28;20232;-79
2022/03/26 09:55:38;;;;;;;17.90;11.70;;;14.70;86.00;;;;;;5058822;28;20232;-78
2022/03/26 09:58:05;;;;;;;15.63;11.23;;;14.60;86.30;;;;;;5047780;28;20228;-79
2022/03/26 10:00:32;;;;;;;15.87;10.30;;;14.60;86.60;;;;;;5056715;28;20227;-79
2022/03/26 10:02:58;;;;;;;13.40;9.57;;;14.50;87.00;;;;;;5046017;28;20723;-77
2022/03/26 10:05:34;;;;;;;11.90;8.10;;;14.50;87.90;;;;;;5054389;28;20227;-78
2022/03/26 10:08:15;;;;;;;10.87;7.63;;;14.60;88.00;;;;;;5049657;28;20312;-78
2022/03/26 10:10:44;;;;;;;11.00;8.27;;;14.70;87.70;;;;;;5052237;28;20574;-78
2022/03/26 10:13:11;;;;;;;10.73;7.83;;;14.70;87.30;;;;;;5048788;28;20256;-78
2022/03/26 10:15:38;;;;;;;12.30;7.43;;;14.70;88.10;;;;;;5045380;28;20807;-77
2022/03/26 10:18:12;;;;;;;12.67;7.57;;;14.70;87.10;;;;;;5042738;28;20729;-78
2022/03/26 10:20:40;;;;;;;9.00;7.40;;;14.70;87.10;;;;;;5048612;28;20240;-77
2022/03/26 10:23:07;;;;;;;11.83;8.47;;;14.70;87.20;;;;;;5048021;28;20231;-78
2022/03/26 10:25:34;;;;;;;12.33;7.70;;;14.70;87.50;;;;;;5047978;28;20235;-79
2022/03/26 10:28:00;;;;;;;13.53;8.30;;;14.70;87.70;;;;;;5049736;28;20764;-79
2022/03/26 10:33:20;;;;;;;13.37;8.47;;;14.80;87.80;;;;;;5015388;28;20384;-78
2022/03/26 10:35:54;;;;;;;13.33;7.90;;;14.80;87.50;;;;;;5052534;28;20220;-78
2022/03/26 10:38:28;;;;;;;14.23;9.00;;;14.90;87.20;;;;;;5049729;28;20593;-78
2022/03/26 10:40:59;;;;;;;15.80;9.33;;;14.90;87.10;;;;;;5051084;28;20219;-78
2022/03/26 10:43:27;;;;;;;15.37;9.40;;;14.90;87.20;;;;;;5057493;28;20220;-78
2022/03/26 10:45:57;;;;;;;14.97;9.83;;;14.90;87.10;;;;;;5057164;28;20242;-79
2022/03/26 10:48:25;;;;;;;12.17;9.07;;;14.90;86.90;;;;;;5050749;28;20228;-78
2022/03/26 10:50:58;;;;;;;11.67;8.23;;;14.90;87.10;;;;;;5051228;28;20238;-78
2022/03/26 10:53:34;;;;;;;12.60;8.93;;;14.90;87.20;;;;;;5050284;28;20769;-78
2022/03/26 10:56:02;;;;;;;10.57;7.80;;;14.90;87.10;;;;;;5048553;28;20223;-78
2022/03/26 10:58:30;;;;;;;11.87;7.73;;;15.00;87.30;;;;;;5045429;28;21007;-78
2022/03/26 11:00:57;;;;;;;11.77;8.63;;;15.00;87.40;;;;;;5050155;28;20315;-78
2022/03/26 11:03:24;;;;;;;13.07;8.50;;;15.00;87.50;;;;;;5050536;28;20242;-79
2022/03/26 11:05:54;;;;;;;13.73;8.17;;;15.10;87.50;;;;;;5050571;28;20604;-79
2022/03/26 11:08:23;;;;;;;9.47;7.73;;;15.00;87.30;;;;;;5047519;28;20224;-78
2022/03/26 11:10:51;;;;;;;11.27;7.57;;;15.10;87.40;;;;;;5045733;28;20227;-77
2022/03/26 11:13:20;;;;;;;16.47;8.30;;;15.10;87.50;;;;;;5050762;28;20232;-77
2022/03/26 11:15:50;;;;;;;11.20;8.37;;;15.00;87.60;;;;;;5046244;28;20701;-77
2022/03/26 11:18:30;;;;;;;9.97;7.50;;;15.00;87.80;;;;;;5046508;28;20224;-76
2022/03/26 11:21:19;;;;;;;10.40;6.97;;;15.00;87.80;;;;;;5046853;28;20235;-77
2022/03/26 11:24:09;;;;;;;10.37;7.17;;;14.90;87.90;;;;;;5041300;28;20228;-76
2022/03/26 11:26:51;;;;;;;14.23;7.43;;;14.90;87.80;;;;;;5045452;28;20252;-76
2022/03/26 11:29:35;;;;;;;11.73;7.50;;;14.90;88.10;;;;;;5046551;28;20970;-76
2022/03/26 11:32:11;;;;;;;10.27;7.47;;;14.90;88.00;;;;;;5045543;28;20223;-77
2022/03/26 11:34:38;;;;;;;11.33;7.70;;;14.90;88.20;;;;;;5045413;28;20632;-77
2022/03/26 11:37:12;;;;;;;11.40;7.47;;;14.90;88.20;;;;;;5046669;28;20232;-77
2022/03/26 11:39:48;;;;;;;10.87;7.87;;;14.90;88.40;;;;;;5049181;28;20226;-76
2022/03/26 11:42:16;;;;;;;11.27;8.37;;;14.90;88.70;;;;;;5045612;28;20606;-76
2022/03/26 11:50:41;;;;;;;10.63;8.30;;;15.00;88.90;;;;;;5044160;28;20228;-76
2022/03/26 11:50:42;;;;;;;10.97;8.83;;;15.10;88.50;;;;;;5042129;28;20230;-76
2022/03/26 11:53:10;;;;;;;12.80;8.27;;;15.10;88.10;;;;;;5045582;28;20234;-77
2022/03/26 11:55:46;;;;;;;13.47;8.87;;;15.10;88.10;;;;;;5046466;28;20381;-77
2022/03/26 11:58:24;;;;;;;12.97;9.43;;;15.10;88.20;;;;;;5044182;28;20712;-76
2022/03/26 12:00:59;;;;;;;12.10;9.77;;;15.10;88.10;;;;;;5044791;28;20437;-76
2022/03/26 12:03:28;;;;;;;14.20;9.90;;;15.10;88.20;;;;;;5042937;28;20857;-76
2022/03/26 12:08:42;;;;;;;12.57;9.30;;;15.00;88.10;;;;;;5042899;28;20234;-77
2022/03/26 12:11:13;;;;;;;12.33;10.10;;;14.90;88.10;;;;;;5044946;28;20250;-76
2022/03/26 12:13:40;;;;;;;16.70;10.67;;;14.80;88.60;;;;;;5045907;28;20235;-77
2022/03/26 12:16:07;;;;;;;15.33;10.20;;;14.80;88.70;;;;;;5044598;28;20235;-76
2022/03/26 12:18:35;;;;;;;12.77;9.67;;;14.80;88.70;;;;;;5045427;28;20732;-77
2022/03/26 12:21:10;;;;;;;13.70;10.03;;;14.80;88.80;;;;;;5049593;28;20655;-77
2022/03/26 12:23:36;;;;;;;14.87;10.67;;;14.80;89.10;;;;;;5045021;28;20239;-76
2022/03/26 12:26:06;;;;;;;12.07;8.77;;;14.90;89.10;;;;;;5045705;28;20227;-76
2022/03/26 12:28:36;;;;;;;13.10;9.07;;;14.90;89.00;;;;;;5043181;28;20319;-76
2022/03/26 12:31:06;;;;;;;10.33;8.23;;;15.00;89.10;;;;;;5045796;28;20262;-76
2022/03/26 12:33:40;;;;;;;12.03;9.33;;;15.10;89.50;;;;;;5045813;28;20234;-76
2022/03/26 12:36:08;;;;;;;12.27;9.37;;;15.30;89.20;;;;;;5043775;28;20237;-76
2022/03/26 12:38:35;;;;;;;12.90;8.90;;;15.40;88.90;;;;;;5044438;28;20273;-76
2022/03/26 12:41:04;;;;;;;11.13;8.43;;;15.60;88.70;;;;;;5043248;28;20238;-76
2022/03/26 12:43:31;;;;;;;10.77;8.67;;;15.80;88.60;;;;;;5044283;28;20224;-76